• Join FlightAware (Why Join?)
  • Login
  • US Flag 
05:15AM EST


 

Airport Tracker/Info


-or-


 

Live Flight TrackerFlight Track Log ✈ EGF3418 ✈ 21-Apr-2013 ✈ KDFW - KAMA

Flight Track Log - Related Links

Times and Time Zones

All times are in EDT time to prevent confusion due to time zone crossing. See the EGF3418 flight status page for this flight to view local times or setup timezone preferences in your user account.

Time Position Orientation Groundspeed Altitude Reporting Facility
EDT Latitude Longitude Course Direction KTS MPH feet Rate Location/Type
03:56PM 32.8500 -97.0500 308° West 182 209 2,500  Level Dallas / Fort Worth TRACON
03:57PM 32.8000 -97.0667 196° South 239 275 4,300 2,100 Climbing Dallas / Fort Worth TRACON
03:58PM 32.7634 -97.2139 281° West  Level FlightAware Approximate
03:58PM 32.7667 -97.1333 239° Southwest 259 298 6,600  Level Dallas / Fort Worth TRACON
03:59PM 32.8073 -97.2983 307° West  Level FlightAware Approximate
03:59PM 32.7686 -97.2256 271° West 278 320 8,400  Level Fort Worth Center
04:00PM 32.8582 -97.3789 308° West  Level FlightAware Approximate
04:00PM 32.7978 -97.2872 299° West 273 314 10,700  Level Fort Worth Center
04:01PM 32.9109 -97.4579 308° West  Level FlightAware Approximate
04:01PM 32.8542 -97.3739 308° West 285 328 12,200  Level Fort Worth Center
04:02PM 32.9022 -97.4456 309° West 306 352 13,700 1,080 Climbing Fort Worth Center
04:03PM 32.9647 -97.5422 308° West 326 375 14,400 1,080 Climbing Fort Worth Center
04:04PM 33.0211 -97.6289 308° West 338 389 15,900 1,380 Climbing Fort Worth Center
04:05PM 33.0753 -97.7083 309° West 344 396 17,200 1,320 Climbing Fort Worth Center
04:06PM 33.1186 -97.8178 295° West 332 382 18,600 1,320 Climbing Fort Worth Center
04:07PM 33.1475 -97.9097 291° West 332 382 19,900 1,440 Climbing Fort Worth Center
04:08PM 33.1825 -98.0217 291° West 327 376 21,500 1,500 Climbing Fort Worth Center
04:09PM 33.2114 -98.1161 290° West 327 376 22,900 1,380 Climbing Fort Worth Center
04:10PM 33.2461 -98.2183 292° West 332 382 24,300 1,440 Climbing Fort Worth Center
04:11PM 33.2767 -98.3278 288° West 327 376 25,800 1,500 Climbing Fort Worth Center
04:12PM 33.3072 -98.4200 292° West 317 365 27,300 1,440 Climbing Fort Worth Center
04:13PM 33.3336 -98.5125 289° West 303 349 28,700 1,440 Climbing Fort Worth Center
04:14PM 33.3642 -98.5997 293° West 298 343 30,200 1,380 Climbing Fort Worth Center
04:15PM 33.3925 -98.6897 291° West 291 335 31,500 900 Climbing Fort Worth Center
04:16PM 33.4186 -98.7797 289° West 286 329 32,000 240 Climbing Fort Worth Center
04:17PM 33.4489 -98.8822 290° West 308 354 32,000  Level Fort Worth Center
04:18PM 33.4808 -98.9900 290° West 325 374 32,000  Level Fort Worth Center
04:19PM 33.5169 -99.1053 291° West 355 409 32,000  Level Fort Worth Center
04:20PM 33.5528 -99.2231 290° West 369 425 32,000  Level Fort Worth Center
04:21PM 33.5867 -99.3383 289° West 369 425 32,000  Level Fort Worth Center
04:22PM 33.6225 -99.4464 292° West 364 419 32,000  Level Fort Worth Center
04:23PM 33.6878 -99.5353 311° West 345 397 32,000  Level Fort Worth Center
04:24PM 33.7531 -99.6219 312° West 350 403 32,000  Level Fort Worth Center
04:25PM 33.8164 -99.7083 311° West 350 403 32,000  Level Fort Worth Center
04:26PM 33.8836 -99.7953 313° West 350 403 32,000  Level Fort Worth Center
04:27PM 33.9506 -99.8897 311° West 356 410 32,000  Level Fort Worth Center
04:28PM 34.0175 -99.9794 312° West 356 410 32,000  Level Fort Worth Center
04:29PM 34.0864 -100.0767 311° West 361 415 32,000  Level Fort Worth Center
04:30PM 34.1533 -100.1667 312° West 367 422 32,000  Level Fort Worth Center
04:31PM 34.2222 -100.2617 311° West 367 422 32,000  Level Fort Worth Center
04:32PM 34.3228 -100.4025 311° West 374 430 32,000  Level Albuquerque Center
04:33PM 34.4050 -100.5167 311° West 376 433 32,000 -540 Level Albuquerque Center
04:34PM 34.4717 -100.6103 311° West 372 428 30,900 -1,800 Descending Albuquerque Center
04:35PM 34.5389 -100.7019 312° West 367 422 28,400 -2,460 Descending Albuquerque Center
04:36PM 34.6072 -100.7986 311° West 371 427 25,900 -2,700 Descending Albuquerque Center
04:37PM 34.6797 -100.9017 311° West 391 450 22,900 -2,940 Descending Albuquerque Center
04:38PM 34.7494 -101.0000 311° West 389 448 19,900 -3,180 Descending Albuquerque Center
04:40PM 34.8261 -101.1203 308° West 378 435 16,300 -3,180 Descending Albuquerque Center
04:41PM 34.8731 -101.2261 298° West 360 414 13,300 -2,760 Descending Albuquerque Center
04:42PM 34.9208 -101.3294 299° West 352 405 10,600 -1,740 Descending Albuquerque Center
04:43PM 34.9639 -101.4186 301° West 323 372 9,800 -900 Descending Albuquerque Center
04:44PM 35.0033 -101.5008 300° West 295 339 8,800 -1,020 Descending Albuquerque Center
04:45PM 35.0422 -101.5842 300° West 285 328 7,800 -1,020 Descending Albuquerque Center
04:46PM 35.0878 -101.6811 300° West 278 320 6,700 -1,080 Descending Albuquerque Center
04:47PM 35.1239 -101.7575 300° West 266 306 5,600 -1,080 Descending Albuquerque Center
04:48PM 35.1722 -101.7750 344° North 217 250 4,500 -960 Descending Albuquerque Center
04:49PM 35.2042 -101.7339 46° Northeast 182 209 3,700 -780 Descending Albuquerque Center